Time;durP1;ratioP1;P1;durP2;ratioP2;P2;SDS_P1;SDS_P2;PMS_P1;PMS_P2;Temp;Humidity;BMP_temperature;BMP_pressure;BME280_temperature;BME280_humidity;BME280_pressure;Samples;Min_cycle;Max_cycle;Signal;HPM_P1;HPM_P2
2022/11/29 00:01:13;;;;;;;56.30;29.50;;;3.30;99.90;;;;;;5235856;28;20543;-50
2022/11/29 00:03:44;;;;;;;59.00;27.00;;;3.20;99.90;;;;;;5218579;28;20539;-50
2022/11/29 00:06:18;;;;;;;63.43;29.70;;;3.20;99.90;;;;;;5223615;28;20615;-49
2022/11/29 00:08:49;;;;;;;50.67;27.40;;;3.20;99.90;;;;;;5223652;28;20297;-50
2022/11/29 00:14:14;;;;;;;58.10;28.53;;;3.20;99.90;;;;;;5212417;28;20464;-50
2022/11/29 00:16:49;;;;;;;48.73;26.23;;;3.20;99.90;;;;;;5217249;28;20449;-48
2022/11/29 00:19:20;;;;;;;49.90;26.37;;;3.20;99.90;;;;;;5220942;28;20899;-50
2022/11/29 00:21:51;;;;;;;59.47;29.20;;;3.20;99.90;;;;;;5217683;28;20441;-49
2022/11/29 00:24:22;;;;;;;54.93;30.33;;;3.20;99.90;;;;;;5220851;28;20472;-50
2022/11/29 00:26:52;;;;;;;48.10;26.27;;;3.10;99.90;;;;;;5220375;28;20197;-49
2022/11/29 00:29:23;;;;;;;48.63;26.77;;;3.20;99.90;;;;;;5223759;28;20218;-48
2022/11/29 00:31:53;;;;;;;53.70;27.20;;;3.20;99.90;;;;;;5216335;28;20187;-51
2022/11/29 00:34:24;;;;;;;55.97;28.30;;;3.20;99.90;;;;;;5214370;28;20202;-51
2022/11/29 00:36:55;;;;;;;49.50;28.23;;;3.30;99.90;;;;;;5217830;28;20640;-49
2022/11/29 00:39:26;;;;;;;52.07;26.87;;;3.20;99.90;;;;;;5216443;28;20226;-48
2022/11/29 00:41:56;;;;;;;57.60;27.47;;;3.20;99.90;;;;;;5218391;28;20203;-49
2022/11/29 00:44:27;;;;;;;62.97;28.73;;;3.20;99.90;;;;;;5216312;28;20225;-49
2022/11/29 00:46:57;;;;;;;54.53;29.50;;;3.20;99.90;;;;;;5211006;28;20188;-51
2022/11/29 00:49:28;;;;;;;57.10;28.17;;;3.20;99.90;;;;;;5217759;28;20211;-49
2022/11/29 00:51:58;;;;;;;59.20;26.80;;;3.20;99.90;;;;;;5221890;28;20191;-52
2022/11/29 00:54:29;;;;;;;50.10;26.17;;;3.20;99.90;;;;;;5216740;28;20528;-51
2022/11/29 00:57:00;;;;;;;62.50;28.17;;;3.20;99.90;;;;;;5221114;28;20179;-52
2022/11/29 00:59:30;;;;;;;54.97;28.70;;;3.20;99.90;;;;;;5221137;28;20257;-49
2022/11/29 01:02:01;;;;;;;51.27;26.77;;;3.20;99.90;;;;;;5218605;28;20612;-49
2022/11/29 01:04:31;;;;;;;54.50;28.83;;;3.20;99.90;;;;;;5226191;28;20191;-48
2022/11/29 01:07:02;;;;;;;58.47;28.10;;;3.20;99.90;;;;;;5236592;28;20662;-49
2022/11/29 01:09:33;;;;;;;52.90;27.23;;;3.20;99.90;;;;;;5205934;28;20563;-50
2022/11/29 01:12:03;;;;;;;53.73;27.50;;;3.30;99.90;;;;;;5224801;28;20675;-48
2022/11/29 01:14:34;;;;;;;58.53;27.17;;;3.20;99.90;;;;;;5220181;28;20187;-50
2022/11/29 01:17:05;;;;;;;57.73;28.67;;;3.20;99.90;;;;;;5218814;28;20187;-52
2022/11/29 01:19:37;;;;;;;60.37;30.83;;;3.20;99.90;;;;;;5221489;28;20206;-50
2022/11/29 01:22:07;;;;;;;63.43;28.80;;;3.30;99.90;;;;;;5215394;28;20249;-50
2022/11/29 01:24:38;;;;;;;59.57;28.73;;;3.20;99.90;;;;;;5220019;28;20446;-49
2022/11/29 01:27:09;;;;;;;53.90;28.90;;;3.20;99.90;;;;;;5214227;28;20317;-50
2022/11/29 01:29:39;;;;;;;58.63;28.20;;;3.20;99.90;;;;;;5212141;28;20308;-50
2022/11/29 01:32:11;;;;;;;59.10;29.80;;;3.20;99.90;;;;;;5219843;28;20217;-50
2022/11/29 01:34:41;;;;;;;69.43;30.63;;;3.20;99.90;;;;;;5219368;28;20259;-50
2022/11/29 01:37:12;;;;;;;51.27;27.40;;;3.20;99.90;;;;;;5235394;28;20544;-50
2022/11/29 01:39:43;;;;;;;51.40;27.40;;;3.10;99.90;;;;;;5220845;28;20318;-50
2022/11/29 01:42:14;;;;;;;63.53;28.90;;;3.20;99.90;;;;;;5213156;28;20187;-50
2022/11/29 01:44:44;;;;;;;68.93;29.13;;;3.20;99.90;;;;;;5215314;28;20244;-49
2022/11/29 01:47:17;;;;;;;53.17;28.80;;;3.20;99.90;;;;;;5212032;28;20937;-49
2022/11/29 01:49:49;;;;;;;67.07;29.30;;;3.20;99.90;;;;;;5214686;28;20226;-49
2022/11/29 01:52:24;;;;;;;60.40;27.23;;;3.10;99.90;;;;;;5219818;28;20490;-50
2022/11/29 01:54:59;;;;;;;56.83;29.00;;;3.20;99.90;;;;;;5216411;28;20591;-51
2022/11/29 01:57:31;;;;;;;56.93;29.70;;;3.20;99.90;;;;;;5220230;28;20444;-52
2022/11/29 02:00:12;;;;;;;49.70;27.87;;;3.20;99.90;;;;;;5224521;28;20842;-49
2022/11/29 02:02:54;;;;;;;64.23;29.67;;;3.20;99.90;;;;;;5212624;28;20916;-51
2022/11/29 02:05:26;;;;;;;58.30;29.67;;;3.20;99.90;;;;;;5212337;28;20800;-51
2022/11/29 02:07:58;;;;;;;56.83;29.13;;;3.20;99.90;;;;;;5215652;28;20874;-50
2022/11/29 02:10:57;;;;;;;61.83;28.03;;;3.20;99.90;;;;;;5212829;28;20521;-51
2022/11/29 02:13:50;;;;;;;52.90;28.27;;;3.20;99.90;;;;;;5216019;28;20529;-48
2022/11/29 02:16:31;;;;;;;70.27;29.07;;;3.20;99.90;;;;;;5225656;28;20982;-48
2022/11/29 02:19:32;;;;;;;63.60;30.13;;;3.20;99.90;;;;;;5253328;22;20916;-49
2022/11/29 02:22:22;;;;;;;55.13;29.30;;;3.20;99.90;;;;;;5263638;28;20496;-50
2022/11/29 02:25:04;;;;;;;54.47;28.20;;;3.20;99.90;;;;;;5239031;28;20432;-48
2022/11/29 02:28:00;;;;;;;58.30;29.60;;;3.20;99.90;;;;;;5260132;28;20437;-49
2022/11/29 02:30:48;;;;;;;56.67;28.20;;;3.20;99.90;;;;;;5267231;28;20447;-48
2022/11/29 02:33:40;;;;;;;55.60;28.10;;;3.20;99.90;;;;;;5265912;28;20457;-49
2022/11/29 02:36:32;;;;;;;65.97;30.07;;;3.20;99.90;;;;;;5256977;28;20427;-50
2022/11/29 02:39:21;;;;;;;58.37;29.60;;;3.20;99.90;;;;;;5263459;28;20917;-50
2022/11/29 02:42:13;;;;;;;55.07;29.33;;;3.20;99.90;;;;;;5253389;28;20426;-49
2022/11/29 02:45:03;;;;;;;58.43;28.27;;;3.30;99.90;;;;;;5273273;28;20525;-49
2022/11/29 02:48:09;;;;;;;50.47;29.27;;;3.30;99.90;;;;;;5274849;28;20797;-48
2022/11/29 02:50:48;;;;;;;56.43;29.00;;;3.30;99.90;;;;;;5257613;28;20916;-49
2022/11/29 02:53:29;;;;;;;55.13;29.30;;;3.30;99.90;;;;;;5243622;28;20427;-47
2022/11/29 02:56:18;;;;;;;62.70;29.73;;;3.30;99.90;;;;;;5255561;28;20442;-50
2022/11/29 02:59:27;;;;;;;49.73;27.90;;;3.30;99.90;;;;;;5266602;28;20443;-48
2022/11/29 03:02:16;;;;;;;57.50;27.27;;;3.30;99.90;;;;;;5263401;28;20977;-49
2022/11/29 03:04:50;;;;;;;58.00;29.77;;;3.30;99.90;;;;;;5266303;28;20435;-49
2022/11/29 03:07:39;;;;;;;57.90;28.17;;;3.30;99.90;;;;;;5260634;28;20495;-50
2022/11/29 03:10:24;;;;;;;57.63;29.27;;;3.30;99.90;;;;;;5265033;28;20474;-50
2022/11/29 03:12:57;;;;;;;60.27;30.20;;;3.30;99.90;;;;;;5244814;28;20468;-50
2022/11/29 03:15:37;;;;;;;56.30;27.10;;;3.30;99.90;;;;;;5245430;28;20445;-49
2022/11/29 03:18:26;;;;;;;59.77;31.00;;;3.30;99.90;;;;;;5262579;28;20500;-49
2022/11/29 03:21:32;;;;;;;48.70;29.00;;;3.20;99.90;;;;;;5250201;28;20487;-48
2022/11/29 03:24:12;;;;;;;65.47;31.20;;;3.30;99.90;;;;;;5263251;28;20423;-51
2022/11/29 03:27:05;;;;;;;63.70;32.27;;;3.30;99.90;;;;;;5241792;28;20955;-49
2022/11/29 03:29:37;;;;;;;58.83;30.13;;;3.30;99.90;;;;;;5261951;28;20498;-49
2022/11/29 03:32:21;;;;;;;61.13;29.70;;;3.30;99.90;;;;;;5247606;28;20881;-50
2022/11/29 03:35:01;;;;;;;54.30;29.43;;;3.30;99.90;;;;;;5272456;28;20430;-49
2022/11/29 03:37:45;;;;;;;60.73;29.63;;;3.30;99.90;;;;;;5270098;28;20758;-50
2022/11/29 03:40:24;;;;;;;60.90;28.67;;;3.30;99.90;;;;;;5253736;28;20462;-50
2022/11/29 03:43:12;;;;;;;68.50;31.43;;;3.30;99.90;;;;;;5242973;28;20427;-49
2022/11/29 03:46:07;;;;;;;60.10;30.07;;;3.30;99.90;;;;;;5251472;28;20777;-50
2022/11/29 03:48:53;;;;;;;58.40;30.10;;;3.30;99.90;;;;;;5258102;28;20451;-49
2022/11/29 03:52:14;;;;;;;54.17;29.40;;;3.30;99.90;;;;;;5257938;28;20538;-48
2022/11/29 03:55:02;;;;;;;60.20;29.57;;;3.30;99.90;;;;;;5218339;28;20516;-48
2022/11/29 03:58:14;;;;;;;58.83;29.17;;;3.30;99.90;;;;;;5274539;28;20427;-48
2022/11/29 04:00:47;;;;;;;55.63;28.47;;;3.30;99.90;;;;;;5270641;28;20606;-49
2022/11/29 04:03:27;;;;;;;61.43;31.30;;;3.30;99.90;;;;;;5257740;28;20447;-49
2022/11/29 04:06:15;;;;;;;61.63;30.03;;;3.30;99.90;;;;;;5281398;28;20964;-49
2022/11/29 04:09:14;;;;;;;56.33;30.37;;;3.30;99.90;;;;;;5278674;28;20475;-49
2022/11/29 04:12:13;;;;;;;60.37;29.50;;;3.20;99.90;;;;;;5261818;28;20436;-51
2022/11/29 04:15:12;;;;;;;62.77;33.07;;;3.30;99.90;;;;;;5265295;28;20428;-50
2022/11/29 04:17:52;;;;;;;61.73;29.97;;;3.30;99.90;;;;;;5265749;28;20448;-50
2022/11/29 04:21:02;;;;;;;66.93;30.87;;;3.30;99.90;;;;;;5261229;28;20469;-51
2022/11/29 04:24:00;;;;;;;58.77;29.00;;;3.20;99.90;;;;;;5228247;28;20464;-50
2022/11/29 04:27:04;;;;;;;51.00;29.53;;;3.30;99.90;;;;;;5268972;28;20443;-49
2022/11/29 04:29:47;;;;;;;68.23;29.83;;;3.30;99.90;;;;;;5245212;28;20899;-51
2022/11/29 04:32:23;;;;;;;63.63;31.60;;;3.30;99.90;;;;;;5266322;28;20864;-52
2022/11/29 04:35:18;;;;;;;62.33;29.80;;;3.20;99.90;;;;;;5266091;28;20435;-49
2022/11/29 04:38:40;;;;;;;65.60;32.37;;;3.20;99.90;;;;;;5255312;28;20505;-48
2022/11/29 04:41:34;;;;;;;69.17;32.57;;;3.20;99.90;;;;;;5241890;28;20463;-49
2022/11/29 04:44:24;;;;;;;63.17;30.20;;;3.20;99.90;;;;;;5239713;28;20530;-49
2022/11/29 04:47:22;;;;;;;57.53;29.70;;;3.30;99.90;;;;;;5272766;28;20438;-50
2022/11/29 04:50:01;;;;;;;51.63;28.90;;;3.20;99.90;;;;;;5249180;28;20463;-48
2022/11/29 04:52:58;;;;;;;47.73;27.20;;;3.20;99.90;;;;;;5261739;28;21022;-50
2022/11/29 04:55:38;;;;;;;61.73;29.63;;;3.20;99.90;;;;;;5242618;28;20423;-50
2022/11/29 04:58:17;;;;;;;65.47;30.70;;;3.20;99.90;;;;;;5241360;28;20489;-50
2022/11/29 05:01:03;;;;;;;59.73;30.20;;;3.10;99.90;;;;;;5270049;28;20595;-48
2022/11/29 05:03:47;;;;;;;58.07;28.33;;;3.10;99.90;;;;;;5244497;28;20423;-51
2022/11/29 05:06:33;;;;;;;68.10;32.57;;;3.10;99.90;;;;;;5256729;28;20777;-50
2022/11/29 05:09:34;;;;;;;61.60;29.70;;;3.20;99.90;;;;;;5248030;28;20464;-50
2022/11/29 05:12:27;;;;;;;61.03;31.27;;;3.10;99.90;;;;;;5259923;28;20428;-50
2022/11/29 05:15:16;;;;;;;63.03;31.10;;;3.20;99.90;;;;;;5263841;28;20425;-50
2022/11/29 05:17:49;;;;;;;56.23;29.47;;;3.20;99.90;;;;;;5249593;28;20431;-51
2022/11/29 05:20:47;;;;;;;62.73;30.67;;;3.20;99.90;;;;;;5248786;28;20462;-48
2022/11/29 05:23:39;;;;;;;66.80;30.50;;;3.10;99.90;;;;;;5264445;28;20490;-49
2022/11/29 05:26:21;;;;;;;54.23;28.80;;;3.20;99.90;;;;;;5269653;28;20430;-50
2022/11/29 05:29:11;;;;;;;74.80;30.63;;;3.10;99.90;;;;;;5248388;28;20460;-50
2022/11/29 05:32:01;;;;;;;65.93;31.20;;;3.20;99.90;;;;;;5264627;28;20431;-49
2022/11/29 05:34:45;;;;;;;69.63;31.00;;;3.10;99.90;;;;;;5258835;28;20439;-50
2022/11/29 05:37:42;;;;;;;57.93;29.13;;;3.20;99.90;;;;;;5270017;28;20431;-50
2022/11/29 05:40:21;;;;;;;59.80;29.47;;;3.10;99.90;;;;;;5240777;28;20463;-49
2022/11/29 05:43:24;;;;;;;54.50;28.93;;;3.20;99.90;;;;;;5272933;28;20436;-51
2022/11/29 05:46:11;;;;;;;59.30;30.73;;;3.20;99.90;;;;;;5245567;28;20443;-51
2022/11/29 05:49:08;;;;;;;53.60;29.43;;;3.20;99.90;;;;;;5256967;28;20558;-51
2022/11/29 05:51:45;;;;;;;59.77;30.00;;;3.20;99.90;;;;;;5258463;28;20437;-50
2022/11/29 05:54:34;;;;;;;60.10;31.80;;;3.20;99.90;;;;;;5249994;28;21032;-50
2022/11/29 05:57:24;;;;;;;67.87;33.63;;;3.10;99.90;;;;;;5261688;28;20798;-50
2022/11/29 05:59:57;;;;;;;57.20;29.90;;;3.10;99.90;;;;;;5240606;28;20487;-50
2022/11/29 06:02:53;;;;;;;57.23;29.73;;;3.10;99.90;;;;;;5234866;28;20990;-49
2022/11/29 06:05:57;;;;;;;56.10;30.20;;;3.20;99.90;;;;;;5251142;28;20442;-50
2022/11/29 06:08:52;;;;;;;60.67;29.93;;;3.10;99.90;;;;;;5223891;28;20456;-50
2022/11/29 06:11:30;;;;;;;66.87;32.40;;;3.10;99.90;;;;;;5244348;28;20462;-51
2022/11/29 06:14:24;;;;;;;54.67;29.43;;;3.10;99.90;;;;;;5256212;28;20415;-50
2022/11/29 06:17:01;;;;;;;67.70;31.47;;;3.10;99.90;;;;;;5262814;28;20412;-49
2022/11/29 06:19:37;;;;;;;60.33;29.47;;;3.20;99.90;;;;;;5260163;28;20768;-49
2022/11/29 06:22:29;;;;;;;63.03;30.57;;;3.20;99.90;;;;;;5254579;28;20504;-49
2022/11/29 06:25:36;;;;;;;57.83;30.53;;;3.20;99.90;;;;;;5245233;28;20440;-50
2022/11/29 06:28:26;;;;;;;68.63;29.73;;;3.20;99.90;;;;;;5251605;28;20473;-51
2022/11/29 06:31:23;;;;;;;60.57;30.30;;;3.10;99.90;;;;;;5261255;28;20498;-50
2022/11/29 06:34:14;;;;;;;71.27;31.80;;;3.10;99.90;;;;;;5227307;28;20427;-51
2022/11/29 06:36:59;;;;;;;68.90;29.00;;;3.10;99.90;;;;;;5258498;28;20494;-51
2022/11/29 06:39:30;;;;;;;59.40;30.47;;;3.10;99.90;;;;;;5243068;28;20451;-51
2022/11/29 06:42:01;;;;;;;67.83;32.13;;;3.10;99.90;;;;;;5263245;28;20493;-48
2022/11/29 06:44:32;;;;;;;61.13;30.37;;;3.20;99.90;;;;;;5262760;28;20434;-49
2022/11/29 06:47:07;;;;;;;52.97;28.13;;;3.10;99.90;;;;;;5267465;28;20193;-52
2022/11/29 06:49:45;;;;;;;63.20;31.77;;;3.10;99.90;;;;;;5260602;28;20467;-50
2022/11/29 06:52:31;;;;;;;63.00;29.47;;;3.10;99.90;;;;;;5265802;28;20435;-52
2022/11/29 06:55:11;;;;;;;50.77;28.93;;;3.10;99.90;;;;;;5266514;28;20442;-51
2022/11/29 06:58:07;;;;;;;56.67;28.87;;;3.10;99.90;;;;;;5261300;28;20435;-49
2022/11/29 07:01:05;;;;;;;59.43;28.43;;;3.10;99.90;;;;;;5268189;28;20451;-50
2022/11/29 07:03:54;;;;;;;57.87;30.53;;;3.10;99.90;;;;;;5263325;28;20423;-51
2022/11/29 07:06:27;;;;;;;56.87;29.00;;;3.20;99.90;;;;;;5260463;28;21292;-51
2022/11/29 07:09:09;;;;;;;54.70;28.07;;;3.10;99.90;;;;;;5262090;28;20459;-50
2022/11/29 07:11:40;;;;;;;59.17;30.93;;;3.10;99.90;;;;;;5264777;28;20467;-51
2022/11/29 07:14:12;;;;;;;60.30;30.17;;;3.10;99.90;;;;;;5241365;28;20950;-51
2022/11/29 07:16:48;;;;;;;60.83;29.57;;;3.10;99.90;;;;;;5261757;28;20444;-51
2022/11/29 07:20:03;;;;;;;57.03;29.00;;;3.10;99.90;;;;;;5272011;28;20821;-50
2022/11/29 07:22:55;;;;;;;59.87;28.83;;;3.10;99.90;;;;;;5244780;28;20442;-49
2022/11/29 07:25:35;;;;;;;57.93;27.70;;;3.20;99.90;;;;;;5272431;28;20791;-50
2022/11/29 07:28:21;;;;;;;56.40;30.00;;;3.30;99.90;;;;;;5243001;28;20925;-51
2022/11/29 07:31:05;;;;;;;55.03;29.07;;;3.30;99.90;;;;;;5241310;28;20451;-50
2022/11/29 07:33:52;;;;;;;54.80;27.30;;;3.30;99.90;;;;;;5232019;28;20488;-50
2022/11/29 07:36:51;;;;;;;61.97;30.03;;;3.30;99.90;;;;;;5243772;28;20443;-51
2022/11/29 07:39:58;;;;;;;61.33;29.30;;;3.30;99.90;;;;;;5257489;28;20551;-50
2022/11/29 07:42:55;;;;;;;58.33;29.13;;;3.30;99.90;;;;;;5217447;28;20448;-50
2022/11/29 07:45:31;;;;;;;60.57;29.50;;;3.30;99.90;;;;;;5264015;28;20438;-51
2022/11/29 07:48:01;;;;;;;53.60;30.17;;;3.30;99.90;;;;;;5246546;28;20487;-50
2022/11/29 07:50:34;;;;;;;55.20;27.37;;;3.30;99.90;;;;;;5242643;28;20502;-51
2022/11/29 07:53:04;;;;;;;57.80;28.00;;;3.40;99.90;;;;;;5241179;28;20194;-51
2022/11/29 07:55:36;;;;;;;60.47;28.10;;;3.40;99.90;;;;;;5226403;28;20423;-52
2022/11/29 07:58:09;;;;;;;56.10;28.70;;;3.40;99.90;;;;;;5265866;28;20189;-50
2022/11/29 08:00:41;;;;;;;54.63;28.43;;;3.50;99.90;;;;;;5257965;28;21103;-50
2022/11/29 08:03:11;;;;;;;51.67;28.30;;;3.50;99.90;;;;;;5278027;28;20450;-51
2022/11/29 08:05:46;;;;;;;58.43;28.73;;;3.50;99.90;;;;;;5247385;28;21067;-50
2022/11/29 08:08:16;;;;;;;48.60;27.60;;;3.50;99.90;;;;;;5269794;28;20187;-49
2022/11/29 08:10:47;;;;;;;57.80;28.00;;;3.50;99.90;;;;;;5246202;28;20452;-51
2022/11/29 08:13:20;;;;;;;60.50;28.93;;;3.60;99.90;;;;;;5245687;28;20178;-50
2022/11/29 08:15:50;;;;;;;57.83;28.50;;;3.70;99.90;;;;;;5250595;28;20436;-51
2022/11/29 08:18:21;;;;;;;61.97;28.53;;;3.60;99.90;;;;;;5249361;28;20913;-49
2022/11/29 08:20:52;;;;;;;66.83;31.20;;;3.70;99.90;;;;;;5249310;28;20214;-50
2022/11/29 08:23:22;;;;;;;51.57;26.73;;;3.70;99.90;;;;;;5265307;28;20241;-51
2022/11/29 08:25:59;;;;;;;50.30;27.23;;;3.70;99.90;;;;;;5267457;28;20185;-49
2022/11/29 08:28:29;;;;;;;55.53;29.40;;;3.70;99.90;;;;;;5243360;28;20320;-49
2022/11/29 08:31:02;;;;;;;58.93;28.60;;;3.70;99.90;;;;;;5249152;28;20455;-51
2022/11/29 08:33:38;;;;;;;59.43;28.73;;;3.70;99.90;;;;;;5268876;28;20192;-50
2022/11/29 08:36:12;;;;;;;57.80;28.20;;;3.80;99.90;;;;;;5268812;28;21014;-50
2022/11/29 08:38:43;;;;;;;54.50;27.67;;;3.80;99.90;;;;;;5266617;28;20428;-49
2022/11/29 08:41:15;;;;;;;60.30;29.17;;;3.80;99.90;;;;;;5260271;28;20986;-51
2022/11/29 08:43:46;;;;;;;62.67;29.27;;;3.80;99.90;;;;;;5248518;28;20189;-50
2022/11/29 08:46:16;;;;;;;57.13;28.10;;;3.90;99.90;;;;;;5245209;28;21038;-50
2022/11/29 08:48:47;;;;;;;66.93;29.20;;;4.00;99.90;;;;;;5268298;28;20206;-47
2022/11/29 08:51:18;;;;;;;61.10;27.70;;;4.00;99.90;;;;;;5267856;28;20292;-50
2022/11/29 08:53:50;;;;;;;62.53;27.27;;;4.10;99.90;;;;;;5269236;28;20433;-50
2022/11/29 08:56:21;;;;;;;54.20;27.60;;;4.10;99.90;;;;;;5268545;28;20187;-53
2022/11/29 08:58:51;;;;;;;48.93;25.73;;;4.10;99.90;;;;;;5265150;28;20799;-49
2022/11/29 09:01:22;;;;;;;52.17;29.07;;;4.10;99.90;;;;;;5262987;28;20229;-50
2022/11/29 09:04:01;;;;;;;64.93;28.80;;;4.10;99.90;;;;;;5233176;28;20199;-52
2022/11/29 09:06:37;;;;;;;55.30;29.40;;;4.10;99.90;;;;;;5256506;28;20182;-50
2022/11/29 09:09:08;;;;;;;58.37;30.40;;;4.10;99.90;;;;;;5258133;28;20906;-48
2022/11/29 09:11:39;;;;;;;53.87;28.63;;;4.20;99.90;;;;;;5274826;28;21490;-48
2022/11/29 09:14:14;;;;;;;53.47;26.23;;;4.20;99.90;;;;;;5272753;28;20177;-50
2022/11/29 09:16:45;;;;;;;49.90;27.67;;;4.20;99.90;;;;;;5265936;28;20215;-49
2022/11/29 09:19:16;;;;;;;52.37;27.10;;;4.20;99.90;;;;;;5242393;28;20964;-50
2022/11/29 09:21:46;;;;;;;56.13;27.40;;;4.30;99.90;;;;;;5241454;28;20567;-50
2022/11/29 09:24:18;;;;;;;51.97;27.07;;;4.40;99.90;;;;;;5262502;28;20190;-48
2022/11/29 09:26:49;;;;;;;52.90;27.30;;;4.40;99.90;;;;;;5240636;28;20200;-48
2022/11/29 09:29:19;;;;;;;50.40;27.50;;;4.40;99.90;;;;;;5267871;28;20463;-48
2022/11/29 09:31:50;;;;;;;59.83;27.60;;;4.40;99.90;;;;;;5244184;28;20176;-49
2022/11/29 09:34:21;;;;;;;59.33;27.87;;;4.60;99.90;;;;;;5242081;28;20173;-50
2022/11/29 09:36:51;;;;;;;46.43;25.87;;;4.50;99.90;;;;;;5265465;28;20209;-49
2022/11/29 09:39:22;;;;;;;58.70;28.07;;;4.50;99.90;;;;;;5242829;28;20209;-51
2022/11/29 09:42:04;;;;;;;48.37;26.00;;;4.60;99.90;;;;;;5261114;28;20190;-56
2022/11/29 09:44:50;;;;;;;51.40;26.70;;;4.50;99.90;;;;;;5243449;28;20196;-48
2022/11/29 09:47:41;;;;;;;55.10;27.53;;;4.60;99.90;;;;;;5260853;28;20450;-49
2022/11/29 09:50:14;;;;;;;57.20;27.30;;;4.70;99.90;;;;;;5247129;28;20472;-49
2022/11/29 09:52:51;;;;;;;49.80;26.37;;;4.60;99.90;;;;;;5258340;28;20440;-50
2022/11/29 09:55:56;;;;;;;47.20;25.47;;;4.60;99.90;;;;;;5248864;28;20433;-51
2022/11/29 09:58:56;;;;;;;62.37;28.80;;;4.70;99.90;;;;;;5265141;28;20433;-49
2022/11/29 10:01:52;;;;;;;54.20;26.80;;;4.60;99.90;;;;;;5263380;28;20454;-51
2022/11/29 10:04:31;;;;;;;59.10;28.53;;;4.60;99.90;;;;;;5245436;28;20442;-50
2022/11/29 10:07:25;;;;;;;59.83;28.60;;;4.50;99.90;;;;;;5261588;28;20538;-49
2022/11/29 10:10:01;;;;;;;62.73;28.70;;;4.60;99.90;;;;;;5242967;28;20510;-51
2022/11/29 10:12:38;;;;;;;57.10;30.00;;;4.60;99.90;;;;;;5260839;28;20518;-50
2022/11/29 10:15:28;;;;;;;57.73;28.30;;;4.50;99.90;;;;;;5260710;28;20439;-51
2022/11/29 10:18:11;;;;;;;54.20;26.53;;;4.60;99.90;;;;;;5257604;28;20436;-51
2022/11/29 10:20:45;;;;;;;65.77;30.10;;;4.70;99.90;;;;;;5255258;28;20578;-52
2022/11/29 10:23:35;;;;;;;58.33;29.83;;;4.70;99.90;;;;;;5264409;28;20429;-51
2022/11/29 10:26:06;;;;;;;53.83;27.93;;;4.70;99.90;;;;;;5264455;28;20428;-49
2022/11/29 10:28:43;;;;;;;54.43;27.50;;;4.70;99.90;;;;;;5267879;28;20550;-50
2022/11/29 10:31:33;;;;;;;53.17;27.77;;;4.60;99.90;;;;;;5248308;28;20500;-50
2022/11/29 10:34:16;;;;;;;66.30;27.83;;;4.60;99.90;;;;;;5248452;28;20498;-49
2022/11/29 10:36:49;;;;;;;57.50;29.20;;;4.60;99.90;;;;;;5265001;28;20513;-51
2022/11/29 10:39:36;;;;;;;46.80;27.60;;;4.60;99.90;;;;;;5239723;28;20463;-51
2022/11/29 10:45:14;;;;;;;55.67;28.53;;;4.60;99.90;;;;;;5261635;28;20435;-51
2022/11/29 10:47:46;;;;;;;55.17;29.27;;;4.60;99.90;;;;;;5243787;28;20447;-50
2022/11/29 10:50:28;;;;;;;56.47;27.43;;;4.60;99.90;;;;;;5267510;28;21039;-51
2022/11/29 10:53:05;;;;;;;55.27;26.10;;;4.60;99.90;;;;;;5267717;28;20462;-51
2022/11/29 10:55:52;;;;;;;49.97;26.90;;;4.60;99.90;;;;;;5264056;28;20958;-51
2022/11/29 10:58:25;;;;;;;48.47;26.53;;;4.60;99.90;;;;;;5251404;28;20963;-51
2022/11/29 11:01:08;;;;;;;58.23;27.63;;;4.60;99.90;;;;;;5244812;28;20502;-51
2022/11/29 11:03:56;;;;;;;59.27;29.37;;;4.50;99.90;;;;;;5265141;28;20438;-50
2022/11/29 11:06:55;;;;;;;58.13;27.70;;;4.50;99.90;;;;;;5248381;28;20435;-53
2022/11/29 11:09:49;;;;;;;61.50;28.47;;;4.50;99.90;;;;;;5249418;28;20908;-51
2022/11/29 11:12:25;;;;;;;60.73;29.23;;;4.60;99.90;;;;;;5263660;28;20468;-52
2022/11/29 11:15:26;;;;;;;53.30;28.67;;;4.60;99.90;;;;;;5248275;28;20424;-51
2022/11/29 11:17:58;;;;;;;52.97;27.13;;;4.70;99.90;;;;;;5247284;28;20436;-49
2022/11/29 11:20:35;;;;;;;55.23;29.40;;;4.70;99.90;;;;;;5268298;28;20471;-50
2022/11/29 11:23:22;;;;;;;57.83;29.30;;;4.70;99.90;;;;;;5267892;28;20447;-48
2022/11/29 11:26:12;;;;;;;57.17;27.67;;;4.80;99.90;;;;;;5262957;28;20500;-49
2022/11/29 11:28:58;;;;;;;63.37;30.50;;;4.60;99.90;;;;;;5265472;28;20814;-50
2022/11/29 11:31:33;;;;;;;57.13;28.87;;;4.70;99.90;;;;;;5264291;28;20468;-49
2022/11/29 11:34:23;;;;;;;57.47;29.13;;;4.70;99.90;;;;;;5251034;28;20428;-50
2022/11/29 11:37:13;;;;;;;63.17;28.87;;;4.70;99.90;;;;;;5247228;28;20962;-52
2022/11/29 11:39:46;;;;;;;66.90;30.23;;;4.60;99.90;;;;;;5262410;28;21148;-50
2022/11/29 11:42:36;;;;;;;67.93;30.70;;;4.70;99.90;;;;;;5262315;28;20440;-51
2022/11/29 11:45:10;;;;;;;59.53;29.27;;;4.70;99.90;;;;;;5247370;28;20899;-50
2022/11/29 11:47:49;;;;;;;65.47;29.93;;;4.70;99.90;;;;;;5268150;28;20504;-51
2022/11/29 11:50:28;;;;;;;56.07;29.53;;;4.70;99.90;;;;;;5266241;28;20459;-49
2022/11/29 11:53:17;;;;;;;50.83;28.43;;;4.80;99.90;;;;;;5245617;28;20460;-51
2022/11/29 11:56:03;;;;;;;60.33;31.77;;;4.70;99.90;;;;;;5250920;28;20426;-48
2022/11/29 11:58:44;;;;;;;60.73;31.17;;;4.70;99.90;;;;;;5267257;28;20428;-48
2022/11/29 12:01:22;;;;;;;73.93;32.07;;;4.80;99.90;;;;;;5248910;28;21882;-48
2022/11/29 12:04:00;;;;;;;55.70;30.87;;;4.80;99.90;;;;;;5231363;28;20947;-50
2022/11/29 12:06:37;;;;;;;71.77;30.07;;;4.90;99.90;;;;;;5268777;28;20445;-50
2022/11/29 12:09:08;;;;;;;70.03;30.53;;;4.80;99.90;;;;;;5266159;28;21555;-49
2022/11/29 12:12:20;;;;;;;72.47;31.93;;;4.70;99.90;;;;;;5267322;28;20429;-47
2022/11/29 12:15:18;;;;;;;57.53;31.10;;;4.70;99.90;;;;;;5234541;28;20536;-52
2022/11/29 12:17:54;;;;;;;62.53;30.80;;;4.80;99.90;;;;;;5267418;28;20828;-50
2022/11/29 12:20:57;;;;;;;63.40;31.00;;;4.80;99.90;;;;;;5242962;28;20879;-53
2022/11/29 12:23:48;;;;;;;57.70;30.27;;;4.80;99.90;;;;;;5262563;28;20809;-50
2022/11/29 12:26:32;;;;;;;53.23;30.63;;;4.70;99.90;;;;;;5246629;28;20440;-54
2022/11/29 12:29:03;;;;;;;57.20;30.63;;;4.80;99.90;;;;;;5264699;28;20464;-49
2022/11/29 12:31:43;;;;;;;63.90;30.27;;;4.80;99.90;;;;;;5253499;28;20831;-49
2022/11/29 12:34:41;;;;;;;69.90;30.60;;;4.80;99.90;;;;;;5248787;28;20945;-48
2022/11/29 12:37:33;;;;;;;72.37;32.93;;;4.80;99.90;;;;;;5266732;28;21069;-54
2022/11/29 12:40:12;;;;;;;62.50;31.57;;;4.80;99.90;;;;;;5241756;28;20816;-51
2022/11/29 12:43:20;;;;;;;60.63;31.10;;;4.80;99.90;;;;;;5263495;28;20432;-47
2022/11/29 12:46:14;;;;;;;56.03;30.53;;;4.70;99.90;;;;;;5265768;28;20463;-48
2022/11/29 12:49:02;;;;;;;62.47;31.60;;;4.70;99.90;;;;;;5247719;28;20461;-49
2022/11/29 12:51:56;;;;;;;68.67;32.03;;;4.80;99.90;;;;;;5244087;28;20500;-49
2022/11/29 12:54:46;;;;;;;76.90;33.90;;;4.80;99.90;;;;;;5265793;28;20440;-48
2022/11/29 12:57:44;;;;;;;74.50;31.93;;;4.80;99.90;;;;;;5264639;28;21363;-54
2022/11/29 13:00:18;;;;;;;57.80;30.80;;;4.80;99.90;;;;;;5266217;28;20555;-51
2022/11/29 13:03:12;;;;;;;61.13;31.60;;;4.90;99.90;;;;;;5251271;28;20441;-49
2022/11/29 13:06:01;;;;;;;63.20;32.33;;;4.90;99.90;;;;;;5268981;28;20436;-51
2022/11/29 13:08:57;;;;;;;65.03;30.50;;;4.90;99.90;;;;;;5264045;28;20472;-53
2022/11/29 13:11:35;;;;;;;57.70;30.80;;;4.80;99.90;;;;;;5266530;28;20450;-47
2022/11/29 13:14:16;;;;;;;66.00;31.50;;;4.80;99.90;;;;;;5262780;28;20448;-49
2022/11/29 13:17:02;;;;;;;65.47;32.03;;;4.80;99.90;;;;;;5264024;28;20430;-51
2022/11/29 13:19:42;;;;;;;66.10;32.70;;;4.80;99.90;;;;;;5245602;28;20884;-49
2022/11/29 13:22:28;;;;;;;59.87;30.30;;;4.90;99.90;;;;;;5263579;28;20448;-48
2022/11/29 13:25:04;;;;;;;62.43;34.03;;;4.80;99.90;;;;;;5266911;28;20511;-48
2022/11/29 13:27:44;;;;;;;69.63;35.30;;;4.80;99.90;;;;;;5245411;28;20803;-53
2022/11/29 13:30:15;;;;;;;73.43;34.33;;;4.80;99.90;;;;;;5268160;28;20662;-50
2022/11/29 13:33:06;;;;;;;64.43;32.83;;;4.80;99.90;;;;;;5247482;28;20435;-48
2022/11/29 13:36:08;;;;;;;73.53;32.70;;;4.80;99.90;;;;;;5249770;28;20511;-50
2022/11/29 13:39:16;;;;;;;57.30;30.47;;;4.80;99.90;;;;;;5203250;28;20444;-49
2022/11/29 13:41:55;;;;;;;70.23;33.00;;;4.80;99.90;;;;;;5238932;28;20890;-48
2022/11/29 13:44:51;;;;;;;80.73;34.00;;;4.70;99.90;;;;;;5264570;28;20483;-50
2022/11/29 13:47:22;;;;;;;71.80;33.60;;;4.80;99.90;;;;;;5271796;28;20455;-48
2022/11/29 13:50:01;;;;;;;71.73;33.27;;;4.80;99.90;;;;;;5256026;28;20477;-50
2022/11/29 13:52:42;;;;;;;68.40;33.63;;;4.80;99.90;;;;;;5262253;28;20429;-50
2022/11/29 13:55:17;;;;;;;65.53;33.77;;;4.70;99.90;;;;;;5261689;28;20504;-48
2022/11/29 13:57:50;;;;;;;58.27;31.33;;;4.80;99.90;;;;;;5248590;28;20437;-48